sensor_id;sensor_type;location;lat;lon;timestamp;pressure;altitude;pressure_sealevel;temperature;humidity
57452;BME280;54295;51.224;-0.164;2022-09-14T00:01:21;100110.62;;;18.56;56.04
57452;BME280;54295;51.224;-0.164;2022-09-14T00:03:51;100111.67;;;18.11;56.57
57452;BME280;54295;51.224;-0.164;2022-09-14T00:06:18;100111.97;;;18.62;55.58
57452;BME280;54295;51.224;-0.164;2022-09-14T00:08:49;100109.30;;;18.60;55.85
57452;BME280;54295;51.224;-0.164;2022-09-14T00:11:17;100110.15;;;18.34;56.13
57452;BME280;54295;51.224;-0.164;2022-09-14T00:13:45;100109.06;;;18.43;56.15
57452;BME280;54295;51.224;-0.164;2022-09-14T00:16:13;100113.83;;;18.78;55.47
57452;BME280;54295;51.224;-0.164;2022-09-14T00:18:41;100110.73;;;18.98;55.05
57452;BME280;54295;51.224;-0.164;2022-09-14T00:21:09;100106.69;;;18.77;55.16
57452;BME280;54295;51.224;-0.164;2022-09-14T00:23:38;100101.24;;;18.72;56.07
57452;BME280;54295;51.224;-0.164;2022-09-14T00:26:07;100095.71;;;18.21;55.88
57452;BME280;54295;51.224;-0.164;2022-09-14T00:28:36;100091.43;;;18.69;54.97
57452;BME280;54295;51.224;-0.164;2022-09-14T00:31:05;100082.75;;;18.14;55.95
57452;BME280;54295;51.224;-0.164;2022-09-14T00:33:32;100081.88;;;18.35;56.70
57452;BME280;54295;51.224;-0.164;2022-09-14T00:36:04;100076.00;;;17.65;58.03
57452;BME280;54295;51.224;-0.164;2022-09-14T00:38:31;100072.31;;;16.69;60.13
57452;BME280;54295;51.224;-0.164;2022-09-14T00:40:59;100066.88;;;17.88;57.64
57452;BME280;54295;51.224;-0.164;2022-09-14T00:43:26;100064.93;;;17.85;57.64
57452;BME280;54295;51.224;-0.164;2022-09-14T00:45:53;100060.41;;;18.10;57.20
57452;BME280;54295;51.224;-0.164;2022-09-14T00:48:23;100057.73;;;17.50;58.24
57452;BME280;54295;51.224;-0.164;2022-09-14T00:50:51;100051.67;;;17.16;58.95
57452;BME280;54295;51.224;-0.164;2022-09-14T00:53:19;100051.32;;;18.17;57.04
57452;BME280;54295;51.224;-0.164;2022-09-14T00:55:46;100050.05;;;18.25;56.70
57452;BME280;54295;51.224;-0.164;2022-09-14T00:58:13;100049.28;;;17.56;57.52
57452;BME280;54295;51.224;-0.164;2022-09-14T01:00:40;100047.82;;;17.66;57.55
57452;BME280;54295;51.224;-0.164;2022-09-14T01:03:07;100041.64;;;17.54;58.01
57452;BME280;54295;51.224;-0.164;2022-09-14T01:05:48;100035.30;;;17.58;58.15
57452;BME280;54295;51.224;-0.164;2022-09-14T01:08:28;100035.92;;;18.09;57.31
57452;BME280;54295;51.224;-0.164;2022-09-14T01:11:08;100031.80;;;17.69;57.91
57452;BME280;54295;51.224;-0.164;2022-09-14T01:13:42;100028.03;;;16.75;59.77
57452;BME280;54295;51.224;-0.164;2022-09-14T01:16:17;100023.49;;;16.71;60.51
57452;BME280;54295;51.224;-0.164;2022-09-14T01:18:49;100022.95;;;17.04;59.01
57452;BME280;54295;51.224;-0.164;2022-09-14T01:21:25;100023.74;;;17.20;58.65
57452;BME280;54295;51.224;-0.164;2022-09-14T01:24:00;100019.60;;;17.73;57.90
57452;BME280;54295;51.224;-0.164;2022-09-14T01:26:42;100020.56;;;18.18;57.16
57452;BME280;54295;51.224;-0.164;2022-09-14T01:29:16;100023.76;;;17.86;57.07
57452;BME280;54295;51.224;-0.164;2022-09-14T01:31:49;100021.51;;;18.44;56.67
57452;BME280;54295;51.224;-0.164;2022-09-14T01:34:23;100018.84;;;18.40;56.12
57452;BME280;54295;51.224;-0.164;2022-09-14T01:36:57;100017.14;;;18.12;56.09
57452;BME280;54295;51.224;-0.164;2022-09-14T01:39:28;100018.93;;;18.21;56.58
57452;BME280;54295;51.224;-0.164;2022-09-14T01:41:58;100017.64;;;17.57;57.72
57452;BME280;54295;51.224;-0.164;2022-09-14T01:44:30;100012.81;;;17.94;57.08
57452;BME280;54295;51.224;-0.164;2022-09-14T01:47:04;100005.68;;;16.66;59.93
57452;BME280;54295;51.224;-0.164;2022-09-14T01:49:36;100005.85;;;18.07;57.30
57452;BME280;54295;51.224;-0.164;2022-09-14T01:52:07;100001.70;;;18.10;56.85
57452;BME280;54295;51.224;-0.164;2022-09-14T01:54:39;100001.95;;;16.52;59.75
57452;BME280;54295;51.224;-0.164;2022-09-14T01:57:11;100001.20;;;16.63;60.08
57452;BME280;54295;51.224;-0.164;2022-09-14T01:59:43;100001.83;;;17.87;57.44
57452;BME280;54295;51.224;-0.164;2022-09-14T02:02:13;99993.84;;;16.43;59.86
57452;BME280;54295;51.224;-0.164;2022-09-14T02:04:46;99991.76;;;16.02;60.98
57452;BME280;54295;51.224;-0.164;2022-09-14T02:07:15;99994.68;;;17.54;57.12
57452;BME280;54295;51.224;-0.164;2022-09-14T02:09:43;99992.20;;;18.01;56.91
57452;BME280;54295;51.224;-0.164;2022-09-14T02:12:11;99990.10;;;18.04;57.05
57452;BME280;54295;51.224;-0.164;2022-09-14T02:14:38;99983.34;;;17.53;57.83
57452;BME280;54295;51.224;-0.164;2022-09-14T02:17:05;99981.22;;;17.17;58.14
57452;BME280;54295;51.224;-0.164;2022-09-14T02:19:38;99976.66;;;17.41;57.68
57452;BME280;54295;51.224;-0.164;2022-09-14T02:22:06;99979.94;;;18.02;57.06
57452;BME280;54295;51.224;-0.164;2022-09-14T02:24:34;99977.22;;;18.12;56.77
57452;BME280;54295;51.224;-0.164;2022-09-14T02:27:01;99971.66;;;17.07;58.33
57452;BME280;54295;51.224;-0.164;2022-09-14T02:29:29;99970.64;;;16.53;59.58
57452;BME280;54295;51.224;-0.164;2022-09-14T02:32:04;99968.16;;;17.51;57.51
57452;BME280;54295;51.224;-0.164;2022-09-14T02:34:44;99966.78;;;17.49;57.66
57452;BME280;54295;51.224;-0.164;2022-09-14T02:37:18;99963.91;;;17.42;57.84
57452;BME280;54295;51.224;-0.164;2022-09-14T02:39:49;99971.83;;;18.10;56.64
57452;BME280;54295;51.224;-0.164;2022-09-14T02:42:26;99967.98;;;18.42;55.88
57452;BME280;54295;51.224;-0.164;2022-09-14T02:45:01;99969.20;;;17.65;56.83
57452;BME280;54295;51.224;-0.164;2022-09-14T02:47:39;99970.16;;;18.10;56.54
57452;BME280;54295;51.224;-0.164;2022-09-14T02:50:17;99969.94;;;17.71;57.04
57452;BME280;54295;51.224;-0.164;2022-09-14T02:52:50;99973.58;;;17.66;57.00
57452;BME280;54295;51.224;-0.164;2022-09-14T02:55:25;99971.50;;;18.39;55.92
57452;BME280;54295;51.224;-0.164;2022-09-14T02:57:59;99965.47;;;18.07;56.15
57452;BME280;54295;51.224;-0.164;2022-09-14T03:00:28;99962.96;;;18.18;56.40
57452;BME280;54295;51.224;-0.164;2022-09-14T03:02:56;99960.97;;;18.54;55.56
57452;BME280;54295;51.224;-0.164;2022-09-14T03:05:23;99959.27;;;18.55;55.50
57452;BME280;54295;51.224;-0.164;2022-09-14T03:07:51;99960.01;;;18.38;55.56
57452;BME280;54295;51.224;-0.164;2022-09-14T03:10:18;99956.15;;;18.94;54.86
57452;BME280;54295;51.224;-0.164;2022-09-14T03:12:45;99950.67;;;18.62;55.26
57452;BME280;54295;51.224;-0.164;2022-09-14T03:15:12;99944.15;;;18.47;55.36
57452;BME280;54295;51.224;-0.164;2022-09-14T03:17:41;99944.87;;;18.61;55.42
57452;BME280;54295;51.224;-0.164;2022-09-14T03:20:10;99943.11;;;18.64;55.23
57452;BME280;54295;51.224;-0.164;2022-09-14T03:22:37;99940.60;;;18.56;55.06
57452;BME280;54295;51.224;-0.164;2022-09-14T03:25:06;99940.55;;;18.33;55.49
57452;BME280;54295;51.224;-0.164;2022-09-14T03:27:32;99936.84;;;17.17;57.86
57452;BME280;54295;51.224;-0.164;2022-09-14T03:29:59;99937.76;;;17.50;57.49
57452;BME280;54295;51.224;-0.164;2022-09-14T03:32:27;99933.61;;;18.23;56.17
57452;BME280;54295;51.224;-0.164;2022-09-14T03:34:54;99935.18;;;18.24;55.59
57452;BME280;54295;51.224;-0.164;2022-09-14T03:37:21;99938.94;;;18.82;55.18
57452;BME280;54295;51.224;-0.164;2022-09-14T03:39:48;99935.09;;;18.63;55.73
57452;BME280;54295;51.224;-0.164;2022-09-14T03:42:14;99929.09;;;17.18;57.65
57452;BME280;54295;51.224;-0.164;2022-09-14T03:44:42;99925.07;;;18.55;55.28
57452;BME280;54295;51.224;-0.164;2022-09-14T03:47:09;99917.56;;;18.75;55.24
57452;BME280;54295;51.224;-0.164;2022-09-14T03:49:36;99915.74;;;18.68;54.39
57452;BME280;54295;51.224;-0.164;2022-09-14T03:52:03;99912.07;;;18.81;54.96
57452;BME280;54295;51.224;-0.164;2022-09-14T03:54:30;99909.96;;;18.73;54.71
57452;BME280;54295;51.224;-0.164;2022-09-14T03:56:57;99909.06;;;18.92;54.21
57452;BME280;54295;51.224;-0.164;2022-09-14T03:59:24;99909.41;;;18.91;54.24
57452;BME280;54295;51.224;-0.164;2022-09-14T04:01:52;99911.44;;;18.74;54.63
57452;BME280;54295;51.224;-0.164;2022-09-14T04:04:19;99911.49;;;19.19;54.33
57452;BME280;54295;51.224;-0.164;2022-09-14T04:06:46;99909.37;;;19.06;54.45
57452;BME280;54295;51.224;-0.164;2022-09-14T04:09:13;99910.57;;;18.83;54.39
57452;BME280;54295;51.224;-0.164;2022-09-14T04:11:40;99918.02;;;18.66;54.80
57452;BME280;54295;51.224;-0.164;2022-09-14T04:14:07;99919.12;;;17.39;57.21
57452;BME280;54295;51.224;-0.164;2022-09-14T04:16:34;99925.20;;;18.21;56.37
57452;BME280;54295;51.224;-0.164;2022-09-14T04:19:02;99928.98;;;18.14;56.82
57452;BME280;54295;51.224;-0.164;2022-09-14T04:21:29;99928.47;;;18.36;56.65
57452;BME280;54295;51.224;-0.164;2022-09-14T04:23:56;99927.34;;;18.41;56.28
57452;BME280;54295;51.224;-0.164;2022-09-14T04:26:26;99929.34;;;18.58;56.22
57452;BME280;54295;51.224;-0.164;2022-09-14T04:28:54;99928.66;;;17.88;56.69
57452;BME280;54295;51.224;-0.164;2022-09-14T04:31:22;99925.48;;;18.49;56.10
57452;BME280;54295;51.224;-0.164;2022-09-14T04:33:50;99928.22;;;17.59;56.95
57452;BME280;54295;51.224;-0.164;2022-09-14T04:36:18;99927.95;;;18.39;56.56
57452;BME280;54295;51.224;-0.164;2022-09-14T04:38:45;99927.35;;;17.86;56.72
57452;BME280;54295;51.224;-0.164;2022-09-14T04:41:15;99923.79;;;17.70;56.63
57452;BME280;54295;51.224;-0.164;2022-09-14T04:43:44;99921.81;;;18.43;56.39
57452;BME280;54295;51.224;-0.164;2022-09-14T04:46:13;99916.85;;;18.42;56.45
57452;BME280;54295;51.224;-0.164;2022-09-14T04:48:40;99915.71;;;17.98;57.26
57452;BME280;54295;51.224;-0.164;2022-09-14T04:51:10;99915.69;;;17.42;57.76
57452;BME280;54295;51.224;-0.164;2022-09-14T04:53:37;99913.70;;;18.03;57.07
57452;BME280;54295;51.224;-0.164;2022-09-14T04:56:07;99915.16;;;18.23;56.45
57452;BME280;54295;51.224;-0.164;2022-09-14T04:58:36;99915.58;;;18.47;56.40
57452;BME280;54295;51.224;-0.164;2022-09-14T05:01:06;99914.67;;;18.37;56.55
57452;BME280;54295;51.224;-0.164;2022-09-14T05:03:34;99913.40;;;17.64;56.84
57452;BME280;54295;51.224;-0.164;2022-09-14T05:06:01;99912.35;;;17.00;59.21
57452;BME280;54295;51.224;-0.164;2022-09-14T05:08:29;99913.04;;;17.94;56.89
57452;BME280;54295;51.224;-0.164;2022-09-14T05:10:56;99908.53;;;18.17;56.96
57452;BME280;54295;51.224;-0.164;2022-09-14T05:13:23;99905.94;;;18.17;57.02
57452;BME280;54295;51.224;-0.164;2022-09-14T05:15:50;99903.78;;;17.61;57.85
57452;BME280;54295;51.224;-0.164;2022-09-14T05:18:18;99904.35;;;18.24;56.62
57452;BME280;54295;51.224;-0.164;2022-09-14T05:20:44;99903.64;;;18.48;56.58
57452;BME280;54295;51.224;-0.164;2022-09-14T05:23:11;99900.64;;;18.11;57.23
57452;BME280;54295;51.224;-0.164;2022-09-14T05:25:39;99902.45;;;17.92;56.51
57452;BME280;54295;51.224;-0.164;2022-09-14T05:28:07;99900.30;;;17.63;56.22
57452;BME280;54295;51.224;-0.164;2022-09-14T05:30:37;99895.76;;;18.27;54.98
57452;BME280;54295;51.224;-0.164;2022-09-14T05:33:05;99901.09;;;18.97;54.57
57452;BME280;54295;51.224;-0.164;2022-09-14T05:35:32;99901.34;;;18.84;54.61
57452;BME280;54295;51.224;-0.164;2022-09-14T05:37:59;99900.05;;;18.99;54.16
57452;BME280;54295;51.224;-0.164;2022-09-14T05:40:26;99903.31;;;18.98;54.57
57452;BME280;54295;51.224;-0.164;2022-09-14T05:42:53;99908.15;;;18.46;55.01
57452;BME280;54295;51.224;-0.164;2022-09-14T05:48:48;99909.28;;;19.13;55.30
57452;BME280;54295;51.224;-0.164;2022-09-14T05:48:49;99910.77;;;18.84;55.45
57452;BME280;54295;51.224;-0.164;2022-09-14T05:51:18;99911.51;;;18.58;55.99
57452;BME280;54295;51.224;-0.164;2022-09-14T05:53:46;99909.67;;;18.16;56.69
57452;BME280;54295;51.224;-0.164;2022-09-14T05:56:14;99905.11;;;17.75;57.48
57452;BME280;54295;51.224;-0.164;2022-09-14T05:58:42;99903.50;;;18.13;57.34
57452;BME280;54295;51.224;-0.164;2022-09-14T06:01:10;99902.23;;;18.28;57.18
57452;BME280;54295;51.224;-0.164;2022-09-14T06:03:38;99903.40;;;18.41;57.04
57452;BME280;54295;51.224;-0.164;2022-09-14T06:06:06;99903.89;;;17.28;58.54
57452;BME280;54295;51.224;-0.164;2022-09-14T06:08:34;99900.03;;;18.22;57.07
57452;BME280;54295;51.224;-0.164;2022-09-14T06:11:02;99898.22;;;18.20;56.34
57452;BME280;54295;51.224;-0.164;2022-09-14T06:13:30;99894.55;;;17.87;56.56
57452;BME280;54295;51.224;-0.164;2022-09-14T06:16:01;99893.67;;;17.23;58.16
57452;BME280;54295;51.224;-0.164;2022-09-14T06:18:30;99894.88;;;17.42;57.82
57452;BME280;54295;51.224;-0.164;2022-09-14T06:20:57;99893.47;;;18.01;56.57
57452;BME280;54295;51.224;-0.164;2022-09-14T06:23:25;99893.39;;;17.52;57.41
57452;BME280;54295;51.224;-0.164;2022-09-14T06:25:52;99894.38;;;18.46;55.88
57452;BME280;54295;51.224;-0.164;2022-09-14T06:28:20;99898.34;;;17.57;56.68
57452;BME280;54295;51.224;-0.164;2022-09-14T06:30:47;99896.59;;;18.58;55.49
57452;BME280;54295;51.224;-0.164;2022-09-14T06:33:15;99903.22;;;17.75;56.91
57452;BME280;54295;51.224;-0.164;2022-09-14T06:35:42;99902.66;;;16.91;58.88
57452;BME280;54295;51.224;-0.164;2022-09-14T06:38:30;99903.97;;;18.23;56.54
57452;BME280;54295;51.224;-0.164;2022-09-14T06:41:00;99902.97;;;18.94;55.66
57452;BME280;54295;51.224;-0.164;2022-09-14T06:43:29;99907.87;;;18.91;55.98
57452;BME280;54295;51.224;-0.164;2022-09-14T06:45:58;99911.10;;;17.77;57.43
57452;BME280;54295;51.224;-0.164;2022-09-14T06:48:26;99915.72;;;17.94;57.92
57452;BME280;54295;51.224;-0.164;2022-09-14T06:50:53;99916.63;;;17.87;57.91
57452;BME280;54295;51.224;-0.164;2022-09-14T06:53:20;99915.93;;;17.65;58.23
57452;BME280;54295;51.224;-0.164;2022-09-14T06:55:47;99918.10;;;17.89;58.09
57452;BME280;54295;51.224;-0.164;2022-09-14T06:58:14;99911.08;;;17.00;59.84
57452;BME280;54295;51.224;-0.164;2022-09-14T07:00:42;99910.68;;;16.95;60.60
57452;BME280;54295;51.224;-0.164;2022-09-14T07:03:09;99907.22;;;16.89;60.63
57452;BME280;54295;51.224;-0.164;2022-09-14T07:05:36;99910.18;;;16.83;60.39
57452;BME280;54295;51.224;-0.164;2022-09-14T07:08:03;99911.25;;;16.93;60.15
57452;BME280;54295;51.224;-0.164;2022-09-14T07:10:30;99911.53;;;17.62;58.97
57452;BME280;54295;51.224;-0.164;2022-09-14T07:12:58;99914.79;;;17.13;59.63
57452;BME280;54295;51.224;-0.164;2022-09-14T07:15:25;99918.43;;;17.55;58.08
57452;BME280;54295;51.224;-0.164;2022-09-14T07:17:52;99923.44;;;17.72;57.46
57452;BME280;54295;51.224;-0.164;2022-09-14T07:20:24;99925.59;;;17.13;58.89
57452;BME280;54295;51.224;-0.164;2022-09-14T07:23:07;99925.26;;;17.48;58.23
57452;BME280;54295;51.224;-0.164;2022-09-14T07:25:35;99923.90;;;17.13;58.83
57452;BME280;54295;51.224;-0.164;2022-09-14T07:28:02;99923.56;;;16.92;59.55
57452;BME280;54295;51.224;-0.164;2022-09-14T07:30:29;99926.13;;;17.88;58.62
57452;BME280;54295;51.224;-0.164;2022-09-14T07:32:57;99926.57;;;17.92;58.10
57452;BME280;54295;51.224;-0.164;2022-09-14T07:35:24;99927.64;;;17.86;58.04
57452;BME280;54295;51.224;-0.164;2022-09-14T07:37:51;99927.88;;;17.26;59.19
57452;BME280;54295;51.224;-0.164;2022-09-14T07:40:20;99925.84;;;16.97;59.70
57452;BME280;54295;51.224;-0.164;2022-09-14T07:42:49;99931.24;;;17.78;58.43
57452;BME280;54295;51.224;-0.164;2022-09-14T07:45:17;99927.06;;;18.13;58.23
57452;BME280;54295;51.224;-0.164;2022-09-14T07:47:55;99929.09;;;17.68;58.81
57452;BME280;54295;51.224;-0.164;2022-09-14T07:50:22;99928.28;;;16.38;60.80
57452;BME280;54295;51.224;-0.164;2022-09-14T07:52:50;99928.73;;;16.85;60.04
57452;BME280;54295;51.224;-0.164;2022-09-14T07:55:18;99929.34;;;16.31;62.44
57452;BME280;54295;51.224;-0.164;2022-09-14T07:57:45;99930.15;;;16.54;61.79
57452;BME280;54295;51.224;-0.164;2022-09-14T08:00:12;99934.33;;;17.07;61.19
57452;BME280;54295;51.224;-0.164;2022-09-14T08:02:40;99933.44;;;16.52;61.80
57452;BME280;54295;51.224;-0.164;2022-09-14T08:05:07;99931.26;;;15.83;63.80
57452;BME280;54295;51.224;-0.164;2022-09-14T08:07:35;99929.71;;;16.27;63.01
57452;BME280;54295;51.224;-0.164;2022-09-14T08:10:02;99925.53;;;16.55;62.07
57452;BME280;54295;51.224;-0.164;2022-09-14T08:12:29;99924.63;;;16.33;62.44
57452;BME280;54295;51.224;-0.164;2022-09-14T08:14:57;99927.05;;;16.03;63.37
57452;BME280;54295;51.224;-0.164;2022-09-14T08:17:24;99927.11;;;16.59;62.47
57452;BME280;54295;51.224;-0.164;2022-09-14T08:19:51;99928.59;;;15.67;64.78
57452;BME280;54295;51.224;-0.164;2022-09-14T08:22:18;99924.16;;;15.76;63.72
57452;BME280;54295;51.224;-0.164;2022-09-14T08:24:46;99922.51;;;16.41;62.68
57452;BME280;54295;51.224;-0.164;2022-09-14T08:27:13;99921.12;;;16.73;61.95
57452;BME280;54295;51.224;-0.164;2022-09-14T08:29:40;99922.03;;;15.41;64.11
57452;BME280;54295;51.224;-0.164;2022-09-14T08:32:10;99922.35;;;16.61;62.22
57452;BME280;54295;51.224;-0.164;2022-09-14T08:34:38;99923.23;;;16.17;63.08
57452;BME280;54295;51.224;-0.164;2022-09-14T08:37:05;99924.09;;;17.09;61.32
57452;BME280;54295;51.224;-0.164;2022-09-14T08:39:32;99924.44;;;16.29;62.24
57452;BME280;54295;51.224;-0.164;2022-09-14T08:41:59;99927.25;;;15.88;63.42
57452;BME280;54295;51.224;-0.164;2022-09-14T08:44:28;99931.72;;;16.71;61.49
57452;BME280;54295;51.224;-0.164;2022-09-14T08:46:59;99936.27;;;16.62;61.48
57452;BME280;54295;51.224;-0.164;2022-09-14T08:49:44;99937.73;;;16.98;60.44
57452;BME280;54295;51.224;-0.164;2022-09-14T08:52:22;99935.72;;;16.61;61.24
57452;BME280;54295;51.224;-0.164;2022-09-14T08:54:53;99934.01;;;16.58;61.74
57452;BME280;54295;51.224;-0.164;2022-09-14T08:57:27;99936.75;;;17.38;59.46
57452;BME280;54295;51.224;-0.164;2022-09-14T09:00:04;99942.17;;;17.51;58.98
57452;BME280;54295;51.224;-0.164;2022-09-14T09:02:46;99940.11;;;17.33;59.23
57452;BME280;54295;51.224;-0.164;2022-09-14T09:05:29;99944.97;;;17.92;58.64
57452;BME280;54295;51.224;-0.164;2022-09-14T09:08:02;99939.72;;;17.70;58.84
57452;BME280;54295;51.224;-0.164;2022-09-14T09:10:33;99936.74;;;16.73;61.03
57452;BME280;54295;51.224;-0.164;2022-09-14T09:13:03;99935.02;;;16.43;61.25
57452;BME280;54295;51.224;-0.164;2022-09-14T09:15:34;99939.81;;;17.42;59.68
57452;BME280;54295;51.224;-0.164;2022-09-14T09:18:06;99939.04;;;17.03;59.93
57452;BME280;54295;51.224;-0.164;2022-09-14T09:20:39;99944.79;;;17.96;58.79
57452;BME280;54295;51.224;-0.164;2022-09-14T09:23:10;99943.74;;;17.97;58.95
57452;BME280;54295;51.224;-0.164;2022-09-14T09:25:53;99941.91;;;17.52;59.07
57452;BME280;54295;51.224;-0.164;2022-09-14T09:28:23;99938.18;;;16.50;62.04
57452;BME280;54295;51.224;-0.164;2022-09-14T09:30:51;99935.70;;;16.73;61.56
57452;BME280;54295;51.224;-0.164;2022-09-14T09:33:21;99932.48;;;17.17;60.48
57452;BME280;54295;51.224;-0.164;2022-09-14T09:35:49;99934.35;;;16.67;61.94
57452;BME280;54295;51.224;-0.164;2022-09-14T09:38:19;99937.41;;;17.69;59.71
57452;BME280;54295;51.224;-0.164;2022-09-14T09:40:49;99937.81;;;18.29;58.06
57452;BME280;54295;51.224;-0.164;2022-09-14T09:43:19;99942.18;;;17.67;59.15
57452;BME280;54295;51.224;-0.164;2022-09-14T09:45:52;99939.51;;;18.51;57.54
57452;BME280;54295;51.224;-0.164;2022-09-14T09:48:22;99939.54;;;18.39;57.60
57452;BME280;54295;51.224;-0.164;2022-09-14T09:51:06;99940.66;;;18.91;56.74
57452;BME280;54295;51.224;-0.164;2022-09-14T09:53:36;99937.80;;;19.28;56.00
57452;BME280;54295;51.224;-0.164;2022-09-14T09:56:04;99945.57;;;17.26;58.74
57452;BME280;54295;51.224;-0.164;2022-09-14T09:58:36;99945.09;;;18.47;56.56
57452;BME280;54295;51.224;-0.164;2022-09-14T10:01:05;99947.12;;;18.61;56.95
57452;BME280;54295;51.224;-0.164;2022-09-14T10:03:35;99945.88;;;18.38;57.53
57452;BME280;54295;51.224;-0.164;2022-09-14T10:06:06;99944.69;;;18.12;57.68
57452;BME280;54295;51.224;-0.164;2022-09-14T10:08:39;99949.55;;;17.89;58.12
57452;BME280;54295;51.224;-0.164;2022-09-14T10:11:27;99947.59;;;18.55;57.50
57452;BME280;54295;51.224;-0.164;2022-09-14T10:13:55;99947.87;;;18.63;56.86
57452;BME280;54295;51.224;-0.164;2022-09-14T10:16:24;99947.81;;;18.14;57.53
57452;BME280;54295;51.224;-0.164;2022-09-14T10:18:53;99947.34;;;17.18;59.59
57452;BME280;54295;51.224;-0.164;2022-09-14T10:21:22;99952.73;;;18.26;58.45
57452;BME280;54295;51.224;-0.164;2022-09-14T10:24:03;99957.53;;;18.11;58.28
57452;BME280;54295;51.224;-0.164;2022-09-14T10:26:33;99949.85;;;16.96;59.78
57452;BME280;54295;51.224;-0.164;2022-09-14T10:29:37;99952.33;;;17.98;58.90
57452;BME280;54295;51.224;-0.164;2022-09-14T10:32:15;99947.62;;;17.99;58.10
57452;BME280;54295;51.224;-0.164;2022-09-14T10:34:44;99940.50;;;17.25;59.10
57452;BME280;54295;51.224;-0.164;2022-09-14T10:37:19;99940.48;;;17.55;58.82
57452;BME280;54295;51.224;-0.164;2022-09-14T10:39:56;99940.98;;;18.30;58.19
57452;BME280;54295;51.224;-0.164;2022-09-14T10:42:32;99939.63;;;17.96;58.97
57452;BME280;54295;51.224;-0.164;2022-09-14T10:45:13;99938.79;;;17.63;58.94
57452;BME280;54295;51.224;-0.164;2022-09-14T10:48:02;99941.98;;;18.48;56.78
57452;BME280;54295;51.224;-0.164;2022-09-14T10:50:43;99936.33;;;19.07;54.79
57452;BME280;54295;51.224;-0.164;2022-09-14T10:53:21;99937.47;;;18.55;55.07
57452;BME280;54295;51.224;-0.164;2022-09-14T10:55:56;99938.57;;;19.07;54.63
57452;BME280;54295;51.224;-0.164;2022-09-14T10:58:36;99938.98;;;19.33;54.37
57452;BME280;54295;51.224;-0.164;2022-09-14T11:01:18;99937.74;;;18.89;54.50
57452;BME280;54295;51.224;-0.164;2022-09-14T11:03:59;99933.92;;;19.43;54.62
57452;BME280;54295;51.224;-0.164;2022-09-14T11:06:36;99939.56;;;18.62;54.71
57452;BME280;54295;51.224;-0.164;2022-09-14T11:09:15;99938.03;;;18.18;55.79
57452;BME280;54295;51.224;-0.164;2022-09-14T11:11:50;99932.93;;;18.36;55.73
57452;BME280;54295;51.224;-0.164;2022-09-14T11:14:31;99937.02;;;17.86;57.10
57452;BME280;54295;51.224;-0.164;2022-09-14T11:17:11;99934.22;;;17.89;56.25
57452;BME280;54295;51.224;-0.164;2022-09-14T11:19:47;99931.98;;;18.25;56.01
57452;BME280;54295;51.224;-0.164;2022-09-14T11:22:26;99935.19;;;18.78;55.61
57452;BME280;54295;51.224;-0.164;2022-09-14T11:24:58;99932.85;;;16.97;59.54
57452;BME280;54295;51.224;-0.164;2022-09-14T11:27:30;99937.50;;;18.93;56.62
57452;BME280;54295;51.224;-0.164;2022-09-14T11:30:02;99940.03;;;19.35;55.97
57452;BME280;54295;51.224;-0.164;2022-09-14T11:32:32;99940.05;;;19.28;55.57
57452;BME280;54295;51.224;-0.164;2022-09-14T11:35:10;99945.14;;;18.37;54.97
57452;BME280;54295;51.224;-0.164;2022-09-14T11:37:50;99942.24;;;18.98;54.50
57452;BME280;54295;51.224;-0.164;2022-09-14T11:40:23;99944.04;;;20.05;52.05
57452;BME280;54295;51.224;-0.164;2022-09-14T11:42:58;99942.03;;;20.09;51.94
57452;BME280;54295;51.224;-0.164;2022-09-14T11:45:30;99943.67;;;19.89;52.27
57452;BME280;54295;51.224;-0.164;2022-09-14T11:48:07;99948.17;;;19.97;52.57
57452;BME280;54295;51.224;-0.164;2022-09-14T11:50:37;99951.22;;;19.49;52.12
57452;BME280;54295;51.224;-0.164;2022-09-14T11:53:10;99951.03;;;20.16;50.76
57452;BME280;54295;51.224;-0.164;2022-09-14T11:55:38;99960.27;;;20.17;51.62
57452;BME280;54295;51.224;-0.164;2022-09-14T11:58:10;99959.82;;;19.44;52.14
57452;BME280;54295;51.224;-0.164;2022-09-14T12:00:45;99962.01;;;18.88;54.37
57452;BME280;54295;51.224;-0.164;2022-09-14T12:03:16;99958.90;;;18.55;54.66
57452;BME280;54295;51.224;-0.164;2022-09-14T12:05:44;99957.27;;;19.05;53.24
57452;BME280;54295;51.224;-0.164;2022-09-14T12:08:44;99956.97;;;18.11;55.34
57452;BME280;54295;51.224;-0.164;2022-09-14T12:11:31;99957.98;;;17.93;55.24
57452;BME280;54295;51.224;-0.164;2022-09-14T12:14:33;99963.62;;;18.66;54.52
57452;BME280;54295;51.224;-0.164;2022-09-14T12:17:04;99969.20;;;18.80;54.92
57452;BME280;54295;51.224;-0.164;2022-09-14T12:19:32;99960.68;;;19.57;52.29
57452;BME280;54295;51.224;-0.164;2022-09-14T12:22:19;99959.72;;;19.80;51.65
57452;BME280;54295;51.224;-0.164;2022-09-14T12:24:57;99964.71;;;20.20;52.11
57452;BME280;54295;51.224;-0.164;2022-09-14T12:27:29;99962.30;;;20.44;50.72
57452;BME280;54295;51.224;-0.164;2022-09-14T12:29:57;99966.13;;;20.73;49.86
57452;BME280;54295;51.224;-0.164;2022-09-14T12:32:27;99966.81;;;19.03;52.49
57452;BME280;54295;51.224;-0.164;2022-09-14T12:36:09;99959.28;;;19.25;51.84
57452;BME280;54295;51.224;-0.164;2022-09-14T12:38:39;99956.34;;;20.53;50.02
57452;BME280;54295;51.224;-0.164;2022-09-14T12:43:53;99950.65;;;21.17;49.28
57452;BME280;54295;51.224;-0.164;2022-09-14T12:46:38;99950.84;;;19.42;50.16
57452;BME280;54295;51.224;-0.164;2022-09-14T12:49:27;99954.42;;;20.43;48.58
57452;BME280;54295;51.224;-0.164;2022-09-14T12:51:57;99954.89;;;20.27;48.38
57452;BME280;54295;51.224;-0.164;2022-09-14T12:54:34;99957.53;;;19.72;48.77
57452;BME280;54295;51.224;-0.164;2022-09-14T12:57:21;99955.62;;;19.53;48.94
57452;BME280;54295;51.224;-0.164;2022-09-14T12:59:55;99949.00;;;21.06;46.91
57452;BME280;54295;51.224;-0.164;2022-09-14T13:02:44;99945.04;;;20.77;46.88
57452;BME280;54295;51.224;-0.164;2022-09-14T13:05:17;99943.89;;;20.79;47.45
57452;BME280;54295;51.224;-0.164;2022-09-14T13:07:45;99942.34;;;21.85;45.21
57452;BME280;54295;51.224;-0.164;2022-09-14T13:10:18;99943.12;;;20.50;45.72
57452;BME280;54295;51.224;-0.164;2022-09-14T13:12:46;99942.71;;;21.08;44.41